sensor_id;sensor_type;location;lat;lon;timestamp;pressure;altitude;pressure_sealevel;temperature;humidity
13593;BME280;6867;50.998;4.250;2023-05-09T00:00:50;101523.97;;;17.58;74.22
13593;BME280;6867;50.998;4.250;2023-05-09T00:03:16;101526.22;;;17.61;73.97
13593;BME280;6867;50.998;4.250;2023-05-09T00:05:43;101523.25;;;17.63;73.95
13593;BME280;6867;50.998;4.250;2023-05-09T00:08:10;101518.31;;;17.60;74.09
13593;BME280;6867;50.998;4.250;2023-05-09T00:10:37;101516.75;;;17.40;74.19
13593;BME280;6867;50.998;4.250;2023-05-09T00:13:03;101527.63;;;17.40;74.91
13593;BME280;6867;50.998;4.250;2023-05-09T00:15:31;101507.78;;;17.40;74.77
13593;BME280;6867;50.998;4.250;2023-05-09T00:17:59;101513.34;;;17.57;74.35
13593;BME280;6867;50.998;4.250;2023-05-09T00:20:26;101508.84;;;17.27;74.50
13593;BME280;6867;50.998;4.250;2023-05-09T00:22:52;101498.59;;;17.53;74.31
13593;BME280;6867;50.998;4.250;2023-05-09T00:25:19;101499.53;;;17.35;74.06
13593;BME280;6867;50.998;4.250;2023-05-09T00:27:46;101497.50;;;17.30;74.50
13593;BME280;6867;50.998;4.250;2023-05-09T00:30:13;101497.28;;;17.43;74.17
13593;BME280;6867;50.998;4.250;2023-05-09T00:32:39;101502.34;;;17.28;74.82
13593;BME280;6867;50.998;4.250;2023-05-09T00:35:08;101481.09;;;17.37;74.16
13593;BME280;6867;50.998;4.250;2023-05-09T00:37:35;101474.47;;;17.33;74.13
13593;BME280;6867;50.998;4.250;2023-05-09T00:40:03;101465.97;;;17.17;74.37
13593;BME280;6867;50.998;4.250;2023-05-09T00:42:30;101475.50;;;17.08;74.92
13593;BME280;6867;50.998;4.250;2023-05-09T00:44:57;101472.22;;;17.06;75.27
13593;BME280;6867;50.998;4.250;2023-05-09T00:47:26;101463.25;;;17.06;75.38
13593;BME280;6867;50.998;4.250;2023-05-09T00:49:53;101462.78;;;16.97;75.68
13593;BME280;6867;50.998;4.250;2023-05-09T00:52:23;101450.72;;;17.05;75.48
13593;BME280;6867;50.998;4.250;2023-05-09T00:54:50;101444.13;;;17.12;74.81
13593;BME280;6867;50.998;4.250;2023-05-09T00:57:17;101433.38;;;17.17;74.41
13593;BME280;6867;50.998;4.250;2023-05-09T00:59:44;101442.00;;;17.03;75.02
13593;BME280;6867;50.998;4.250;2023-05-09T01:02:11;101433.97;;;17.08;75.03
13593;BME280;6867;50.998;4.250;2023-05-09T01:04:38;101434.09;;;17.25;74.26
13593;BME280;6867;50.998;4.250;2023-05-09T01:07:09;101415.47;;;17.28;74.24
13593;BME280;6867;50.998;4.250;2023-05-09T01:09:44;101423.34;;;17.30;74.12
13593;BME280;6867;50.998;4.250;2023-05-09T01:12:16;101419.22;;;17.15;74.29
13593;BME280;6867;50.998;4.250;2023-05-09T01:14:55;101416.75;;;17.26;74.24
13593;BME280;6867;50.998;4.250;2023-05-09T01:17:31;101405.06;;;17.25;74.16
13593;BME280;6867;50.998;4.250;2023-05-09T01:20:08;101403.31;;;17.19;74.48
13593;BME280;6867;50.998;4.250;2023-05-09T01:22:42;101403.28;;;16.96;75.00
13593;BME280;6867;50.998;4.250;2023-05-09T01:25:35;101407.91;;;17.18;74.99
13593;BME280;6867;50.998;4.250;2023-05-09T01:28:13;101389.13;;;17.17;74.50
13593;BME280;6867;50.998;4.250;2023-05-09T01:30:45;101387.59;;;17.21;74.24
13593;BME280;6867;50.998;4.250;2023-05-09T01:33:15;101392.22;;;16.97;74.75
13593;BME280;6867;50.998;4.250;2023-05-09T01:35:44;101386.19;;;17.07;74.74
13593;BME280;6867;50.998;4.250;2023-05-09T01:38:16;101390.16;;;16.92;75.14
13593;BME280;6867;50.998;4.250;2023-05-09T01:40:46;101372.47;;;17.13;74.35
13593;BME280;6867;50.998;4.250;2023-05-09T01:43:15;101362.22;;;17.04;74.37
13593;BME280;6867;50.998;4.250;2023-05-09T01:45:46;101352.66;;;17.13;74.17
13593;BME280;6867;50.998;4.250;2023-05-09T01:48:13;101352.91;;;16.88;74.54
13593;BME280;6867;50.998;4.250;2023-05-09T01:50:42;101354.22;;;16.85;74.78
13593;BME280;6867;50.998;4.250;2023-05-09T01:53:10;101357.88;;;17.03;74.18
13593;BME280;6867;50.998;4.250;2023-05-09T01:55:38;101349.00;;;16.96;73.94
13593;BME280;6867;50.998;4.250;2023-05-09T01:58:07;101349.25;;;17.06;73.95
13593;BME280;6867;50.998;4.250;2023-05-09T02:00:35;101343.94;;;17.11;73.33
13593;BME280;6867;50.998;4.250;2023-05-09T02:03:03;101343.47;;;17.14;73.29
13593;BME280;6867;50.998;4.250;2023-05-09T02:05:31;101348.66;;;17.04;73.53
13593;BME280;6867;50.998;4.250;2023-05-09T02:07:59;101350.53;;;16.91;74.00
13593;BME280;6867;50.998;4.250;2023-05-09T02:10:27;101357.88;;;17.03;74.25
13593;BME280;6867;50.998;4.250;2023-05-09T02:12:54;101355.00;;;17.09;74.48
13593;BME280;6867;50.998;4.250;2023-05-09T02:15:22;101334.72;;;17.12;73.62
13593;BME280;6867;50.998;4.250;2023-05-09T02:17:49;101329.75;;;17.09;73.43
13593;BME280;6867;50.998;4.250;2023-05-09T02:20:17;101330.84;;;17.08;73.50
13593;BME280;6867;50.998;4.250;2023-05-09T02:22:44;101321.41;;;16.99;73.84
13593;BME280;6867;50.998;4.250;2023-05-09T02:25:12;101329.75;;;17.09;73.48
13593;BME280;6867;50.998;4.250;2023-05-09T02:27:43;101341.44;;;17.09;73.93
13593;BME280;6867;50.998;4.250;2023-05-09T02:30:14;101341.09;;;17.17;73.92
13593;BME280;6867;50.998;4.250;2023-05-09T02:32:44;101323.50;;;17.20;73.21
13593;BME280;6867;50.998;4.250;2023-05-09T02:35:13;101320.53;;;17.22;73.39
13593;BME280;6867;50.998;4.250;2023-05-09T02:37:43;101309.09;;;17.31;73.21
13593;BME280;6867;50.998;4.250;2023-05-09T02:40:11;101304.25;;;17.22;72.67
13593;BME280;6867;50.998;4.250;2023-05-09T02:42:39;101307.31;;;17.25;72.80
13593;BME280;6867;50.998;4.250;2023-05-09T02:45:07;101313.72;;;16.96;73.70
13593;BME280;6867;50.998;4.250;2023-05-09T02:47:35;101314.09;;;17.11;73.49
13593;BME280;6867;50.998;4.250;2023-05-09T02:50:02;101308.41;;;17.24;73.48
13593;BME280;6867;50.998;4.250;2023-05-09T02:52:29;101295.88;;;17.23;73.26
13593;BME280;6867;50.998;4.250;2023-05-09T02:54:57;101287.03;;;17.16;73.30
13593;BME280;6867;50.998;4.250;2023-05-09T02:57:24;101285.75;;;17.07;73.41
13593;BME280;6867;50.998;4.250;2023-05-09T02:59:51;101284.13;;;17.06;73.19
13593;BME280;6867;50.998;4.250;2023-05-09T03:02:17;101279.34;;;17.25;72.65
13593;BME280;6867;50.998;4.250;2023-05-09T03:04:44;101277.34;;;17.20;72.95
13593;BME280;6867;50.998;4.250;2023-05-09T03:07:11;101274.63;;;17.20;72.92
13593;BME280;6867;50.998;4.250;2023-05-09T03:09:37;101270.72;;;17.39;72.29
13593;BME280;6867;50.998;4.250;2023-05-09T03:12:06;101262.06;;;17.42;71.99
13593;BME280;6867;50.998;4.250;2023-05-09T03:14:32;101250.00;;;17.50;71.59
13593;BME280;6867;50.998;4.250;2023-05-09T03:16:59;101249.72;;;17.35;71.69
13593;BME280;6867;50.998;4.250;2023-05-09T03:19:26;101259.34;;;17.42;71.84
13593;BME280;6867;50.998;4.250;2023-05-09T03:21:52;101259.78;;;17.51;71.59
13593;BME280;6867;50.998;4.250;2023-05-09T03:24:19;101261.59;;;17.46;71.40
13593;BME280;6867;50.998;4.250;2023-05-09T03:26:46;101255.69;;;17.49;71.45
13593;BME280;6867;50.998;4.250;2023-05-09T03:29:14;101265.25;;;17.68;71.18
13593;BME280;6867;50.998;4.250;2023-05-09T03:31:40;101253.41;;;17.57;71.34
13593;BME280;6867;50.998;4.250;2023-05-09T03:34:07;101253.91;;;17.42;71.66
13593;BME280;6867;50.998;4.250;2023-05-09T03:36:40;101258.63;;;17.47;71.92
13593;BME280;6867;50.998;4.250;2023-05-09T03:39:07;101262.19;;;17.48;72.14
13593;BME280;6867;50.998;4.250;2023-05-09T03:41:35;101261.94;;;17.49;72.11
13593;BME280;6867;50.998;4.250;2023-05-09T03:44:02;101269.66;;;17.29;72.96
13593;BME280;6867;50.998;4.250;2023-05-09T03:46:30;101257.06;;;17.23;72.83
13593;BME280;6867;50.998;4.250;2023-05-09T03:48:56;101265.44;;;17.21;73.67
13593;BME280;6867;50.998;4.250;2023-05-09T03:51:23;101256.09;;;17.29;73.18
13593;BME280;6867;50.998;4.250;2023-05-09T03:53:50;101249.81;;;17.40;73.20
13593;BME280;6867;50.998;4.250;2023-05-09T03:56:17;101253.25;;;17.35;73.48
13593;BME280;6867;50.998;4.250;2023-05-09T03:58:44;101254.19;;;17.29;73.70
13593;BME280;6867;50.998;4.250;2023-05-09T04:01:10;101251.84;;;17.21;73.73
13593;BME280;6867;50.998;4.250;2023-05-09T04:03:39;101253.38;;;17.29;74.18
13593;BME280;6867;50.998;4.250;2023-05-09T04:06:06;101246.13;;;17.34;73.95
13593;BME280;6867;50.998;4.250;2023-05-09T04:08:33;101230.78;;;17.40;73.45
13593;BME280;6867;50.998;4.250;2023-05-09T04:10:59;101246.94;;;17.18;74.15
13593;BME280;6867;50.998;4.250;2023-05-09T04:13:26;101236.34;;;17.33;73.97
13593;BME280;6867;50.998;4.250;2023-05-09T04:15:54;101239.31;;;17.32;74.15
13593;BME280;6867;50.998;4.250;2023-05-09T04:18:20;101227.13;;;17.34;73.82
13593;BME280;6867;50.998;4.250;2023-05-09T04:20:48;101235.50;;;17.45;73.92
13593;BME280;6867;50.998;4.250;2023-05-09T04:23:15;101225.16;;;17.30;74.21
13593;BME280;6867;50.998;4.250;2023-05-09T04:25:42;101234.72;;;17.32;74.28
13593;BME280;6867;50.998;4.250;2023-05-09T04:28:08;101221.19;;;17.49;73.91
13593;BME280;6867;50.998;4.250;2023-05-09T04:30:36;101218.13;;;17.46;73.64
13593;BME280;6867;50.998;4.250;2023-05-09T04:33:03;101217.56;;;17.43;73.61
13593;BME280;6867;50.998;4.250;2023-05-09T04:35:29;101215.66;;;17.44;73.84
13593;BME280;6867;50.998;4.250;2023-05-09T04:37:57;101214.78;;;17.55;73.75
13593;BME280;6867;50.998;4.250;2023-05-09T04:40:24;101220.47;;;17.54;73.76
13593;BME280;6867;50.998;4.250;2023-05-09T04:42:51;101217.00;;;17.58;73.47
13593;BME280;6867;50.998;4.250;2023-05-09T04:45:18;101212.09;;;17.72;73.16
13593;BME280;6867;50.998;4.250;2023-05-09T04:47:44;101207.16;;;17.69;73.16
13593;BME280;6867;50.998;4.250;2023-05-09T04:50:11;101203.25;;;17.77;72.91
13593;BME280;6867;50.998;4.250;2023-05-09T04:52:38;101201.41;;;17.65;73.04
13593;BME280;6867;50.998;4.250;2023-05-09T04:55:07;101209.94;;;17.57;73.39
13593;BME280;6867;50.998;4.250;2023-05-09T04:57:34;101203.84;;;17.67;73.21
13593;BME280;6867;50.998;4.250;2023-05-09T05:00:00;101206.56;;;17.67;73.18
13593;BME280;6867;50.998;4.250;2023-05-09T05:02:27;101199.50;;;17.66;73.49
13593;BME280;6867;50.998;4.250;2023-05-09T05:04:54;101206.75;;;17.60;73.59
13593;BME280;6867;50.998;4.250;2023-05-09T05:07:21;101205.72;;;17.50;74.29
13593;BME280;6867;50.998;4.250;2023-05-09T05:09:47;101198.38;;;17.50;74.42
13593;BME280;6867;50.998;4.250;2023-05-09T05:12:15;101195.16;;;17.36;74.99
13593;BME280;6867;50.998;4.250;2023-05-09T05:14:42;101209.38;;;17.15;76.13
13593;BME280;6867;50.998;4.250;2023-05-09T05:17:09;101213.88;;;17.09;76.82
13593;BME280;6867;50.998;4.250;2023-05-09T05:19:35;101204.78;;;17.15;76.95
13593;BME280;6867;50.998;4.250;2023-05-09T05:22:02;101197.72;;;17.14;76.95
13593;BME280;6867;50.998;4.250;2023-05-09T05:24:29;101199.78;;;17.24;76.93
13593;BME280;6867;50.998;4.250;2023-05-09T05:26:55;101191.94;;;17.11;77.06
13593;BME280;6867;50.998;4.250;2023-05-09T05:29:23;101190.56;;;17.25;77.10
13593;BME280;6867;50.998;4.250;2023-05-09T05:31:50;101191.66;;;17.24;77.27
13593;BME280;6867;50.998;4.250;2023-05-09T05:34:17;101182.44;;;17.25;77.32
13593;BME280;6867;50.998;4.250;2023-05-09T05:36:44;101191.56;;;17.19;77.72
13593;BME280;6867;50.998;4.250;2023-05-09T05:39:10;101183.13;;;17.32;77.68
13593;BME280;6867;50.998;4.250;2023-05-09T05:41:37;101186.31;;;17.29;78.00
13593;BME280;6867;50.998;4.250;2023-05-09T05:44:04;101174.28;;;17.25;77.70
13593;BME280;6867;50.998;4.250;2023-05-09T05:46:32;101186.84;;;17.43;78.15
13593;BME280;6867;50.998;4.250;2023-05-09T05:48:59;101173.53;;;17.58;77.37
13593;BME280;6867;50.998;4.250;2023-05-09T05:51:25;101168.72;;;17.60;77.19
13593;BME280;6867;50.998;4.250;2023-05-09T05:53:52;101171.91;;;17.57;77.48
13593;BME280;6867;50.998;4.250;2023-05-09T05:56:19;101179.31;;;17.62;77.45
13593;BME280;6867;50.998;4.250;2023-05-09T05:58:47;101175.84;;;17.50;77.64
13593;BME280;6867;50.998;4.250;2023-05-09T06:01:13;101180.16;;;17.34;79.32
13593;BME280;6867;50.998;4.250;2023-05-09T06:03:41;101183.84;;;17.28;79.23
13593;BME280;6867;50.998;4.250;2023-05-09T06:06:08;101169.84;;;17.48;79.06
13593;BME280;6867;50.998;4.250;2023-05-09T06:08:35;101175.53;;;17.63;78.83
13593;BME280;6867;50.998;4.250;2023-05-09T06:11:01;101167.69;;;17.50;79.01
13593;BME280;6867;50.998;4.250;2023-05-09T06:13:30;101164.66;;;17.63;78.91
13593;BME280;6867;50.998;4.250;2023-05-09T06:15:56;101167.38;;;17.63;79.09
13593;BME280;6867;50.998;4.250;2023-05-09T06:18:23;101161.38;;;17.61;79.21
13593;BME280;6867;50.998;4.250;2023-05-09T06:20:51;101163.66;;;17.98;78.83
13593;BME280;6867;50.998;4.250;2023-05-09T06:23:18;101150.97;;;18.03;78.49
13593;BME280;6867;50.998;4.250;2023-05-09T06:25:46;101150.63;;;18.16;78.34
13593;BME280;6867;50.998;4.250;2023-05-09T06:28:13;101148.31;;;18.08;78.30
13593;BME280;6867;50.998;4.250;2023-05-09T06:30:40;101145.28;;;18.05;78.13
13593;BME280;6867;50.998;4.250;2023-05-09T06:33:06;101146.38;;;17.87;78.53
13593;BME280;6867;50.998;4.250;2023-05-09T06:35:33;101150.31;;;17.96;78.81
13593;BME280;6867;50.998;4.250;2023-05-09T06:38:01;101144.47;;;17.87;78.81
13593;BME280;6867;50.998;4.250;2023-05-09T06:40:28;101141.50;;;18.06;78.59
13593;BME280;6867;50.998;4.250;2023-05-09T06:42:54;101142.34;;;18.06;78.72
13593;BME280;6867;50.998;4.250;2023-05-09T06:45:21;101138.59;;;18.12;78.44
13593;BME280;6867;50.998;4.250;2023-05-09T06:47:48;101136.47;;;18.14;78.51
13593;BME280;6867;50.998;4.250;2023-05-09T06:50:14;101119.41;;;18.19;77.89
13593;BME280;6867;50.998;4.250;2023-05-09T06:52:41;101119.56;;;18.12;78.09
13593;BME280;6867;50.998;4.250;2023-05-09T06:55:10;101126.53;;;17.86;79.10
13593;BME280;6867;50.998;4.250;2023-05-09T06:57:37;101121.06;;;18.03;79.08
13593;BME280;6867;50.998;4.250;2023-05-09T07:00:05;101106.50;;;17.92;78.08
13593;BME280;6867;50.998;4.250;2023-05-09T07:02:32;101105.84;;;18.02;78.27
13593;BME280;6867;50.998;4.250;2023-05-09T07:04:58;101098.72;;;18.18;78.17
13593;BME280;6867;50.998;4.250;2023-05-09T07:07:25;101084.69;;;18.26;77.33
13593;BME280;6867;50.998;4.250;2023-05-09T07:09:52;101086.84;;;18.24;77.58
13593;BME280;6867;50.998;4.250;2023-05-09T07:12:20;101091.63;;;18.17;78.17
13593;BME280;6867;50.998;4.250;2023-05-09T07:14:46;101080.09;;;18.10;77.91
13593;BME280;6867;50.998;4.250;2023-05-09T07:17:13;101076.66;;;18.14;77.90
13593;BME280;6867;50.998;4.250;2023-05-09T07:19:40;101082.63;;;18.33;77.96
13593;BME280;6867;50.998;4.250;2023-05-09T07:22:06;101077.34;;;18.44;77.19
13593;BME280;6867;50.998;4.250;2023-05-09T07:24:33;101074.53;;;18.60;76.59
13593;BME280;6867;50.998;4.250;2023-05-09T07:27:01;101059.66;;;18.46;76.60
13593;BME280;6867;50.998;4.250;2023-05-09T07:29:29;101067.88;;;18.51;76.99
13593;BME280;6867;50.998;4.250;2023-05-09T07:31:56;101061.22;;;18.64;76.78
13593;BME280;6867;50.998;4.250;2023-05-09T07:34:22;101060.03;;;18.55;76.50
13593;BME280;6867;50.998;4.250;2023-05-09T07:36:49;101054.00;;;18.70;75.78
13593;BME280;6867;50.998;4.250;2023-05-09T07:39:16;101048.56;;;18.70;75.74
13593;BME280;6867;50.998;4.250;2023-05-09T07:41:43;101040.53;;;18.85;74.95
13593;BME280;6867;50.998;4.250;2023-05-09T07:44:09;101038.13;;;18.88;74.69
13593;BME280;6867;50.998;4.250;2023-05-09T07:46:38;101035.69;;;18.87;75.04
13593;BME280;6867;50.998;4.250;2023-05-09T07:49:06;101036.94;;;18.79;75.03
13593;BME280;6867;50.998;4.250;2023-05-09T07:51:33;101040.81;;;18.83;75.45
13593;BME280;6867;50.998;4.250;2023-05-09T07:54:00;101042.19;;;18.42;76.29
13593;BME280;6867;50.998;4.250;2023-05-09T07:56:26;101045.56;;;18.71;76.46
13593;BME280;6867;50.998;4.250;2023-05-09T07:58:53;101033.91;;;18.54;76.17
13593;BME280;6867;50.998;4.250;2023-05-09T08:01:20;101035.38;;;18.61;76.26
13593;BME280;6867;50.998;4.250;2023-05-09T08:03:48;101033.72;;;18.82;76.07
13593;BME280;6867;50.998;4.250;2023-05-09T08:06:14;101038.97;;;18.67;76.24
13593;BME280;6867;50.998;4.250;2023-05-09T08:08:41;101040.13;;;18.71;76.71
13593;BME280;6867;50.998;4.250;2023-05-09T08:11:08;101016.31;;;18.61;76.28
13593;BME280;6867;50.998;4.250;2023-05-09T08:13:34;101024.75;;;18.82;76.34
13593;BME280;6867;50.998;4.250;2023-05-09T08:16:01;101018.03;;;18.89;76.29
13593;BME280;6867;50.998;4.250;2023-05-09T08:18:28;101004.81;;;18.76;75.71
13593;BME280;6867;50.998;4.250;2023-05-09T08:20:56;101016.97;;;18.96;75.87
13593;BME280;6867;50.998;4.250;2023-05-09T08:23:23;101009.59;;;18.91;75.81
13593;BME280;6867;50.998;4.250;2023-05-09T08:25:52;100994.38;;;18.95;75.32
13593;BME280;6867;50.998;4.250;2023-05-09T08:28:18;100989.28;;;19.04;74.83
13593;BME280;6867;50.998;4.250;2023-05-09T08:30:46;101004.09;;;18.86;75.68
13593;BME280;6867;50.998;4.250;2023-05-09T08:33:13;101002.66;;;18.78;76.38
13593;BME280;6867;50.998;4.250;2023-05-09T08:35:39;100998.94;;;19.16;75.54
13593;BME280;6867;50.998;4.250;2023-05-09T08:38:07;100995.25;;;19.01;75.52
13593;BME280;6867;50.998;4.250;2023-05-09T08:40:34;100984.88;;;18.98;75.14
13593;BME280;6867;50.998;4.250;2023-05-09T08:43:02;100978.94;;;18.74;75.66
13593;BME280;6867;50.998;4.250;2023-05-09T08:45:29;100989.13;;;18.88;75.79
13593;BME280;6867;50.998;4.250;2023-05-09T08:47:57;100972.31;;;18.91;75.13
13593;BME280;6867;50.998;4.250;2023-05-09T08:50:24;100973.13;;;18.65;75.65
13593;BME280;6867;50.998;4.250;2023-05-09T08:52:51;100987.94;;;18.74;76.10
13593;BME280;6867;50.998;4.250;2023-05-09T08:55:20;100993.59;;;18.73;76.37
13593;BME280;6867;50.998;4.250;2023-05-09T08:57:47;100993.59;;;18.73;76.41
13593;BME280;6867;50.998;4.250;2023-05-09T09:00:15;100991.56;;;18.85;76.44
13593;BME280;6867;50.998;4.250;2023-05-09T09:02:45;100975.19;;;18.80;75.76
13593;BME280;6867;50.998;4.250;2023-05-09T09:05:12;100985.50;;;18.56;76.61
13593;BME280;6867;50.998;4.250;2023-05-09T09:07:39;100989.59;;;18.80;76.80
13593;BME280;6867;50.998;4.250;2023-05-09T09:10:09;100989.41;;;18.87;76.60
13593;BME280;6867;50.998;4.250;2023-05-09T09:12:38;100975.66;;;18.99;75.89
13593;BME280;6867;50.998;4.250;2023-05-09T09:15:09;100963.59;;;18.89;75.82
13593;BME280;6867;50.998;4.250;2023-05-09T09:17:41;100980.16;;;19.15;76.29
13593;BME280;6867;50.998;4.250;2023-05-09T09:20:10;100969.03;;;18.89;75.87
13593;BME280;6867;50.998;4.250;2023-05-09T09:22:41;100972.44;;;19.07;75.75
13593;BME280;6867;50.998;4.250;2023-05-09T09:25:09;100967.25;;;19.05;75.99
13593;BME280;6867;50.998;4.250;2023-05-09T09:27:37;100964.00;;;19.08;75.48
13593;BME280;6867;50.998;4.250;2023-05-09T09:30:06;100971.19;;;18.87;75.79
13593;BME280;6867;50.998;4.250;2023-05-09T09:32:34;100967.63;;;18.87;76.23
13593;BME280;6867;50.998;4.250;2023-05-09T09:35:04;100963.00;;;18.87;76.27
13593;BME280;6867;50.998;4.250;2023-05-09T09:37:32;100957.53;;;18.82;75.90
13593;BME280;6867;50.998;4.250;2023-05-09T09:39:59;100950.91;;;18.73;75.76
13593;BME280;6867;50.998;4.250;2023-05-09T09:42:40;100968.91;;;18.52;76.74
13593;BME280;6867;50.998;4.250;2023-05-09T09:45:09;100968.53;;;18.44;77.48
13593;BME280;6867;50.998;4.250;2023-05-09T09:47:36;100966.09;;;18.69;77.04
13593;BME280;6867;50.998;4.250;2023-05-09T09:50:11;100970.91;;;18.89;77.50
13593;BME280;6867;50.998;4.250;2023-05-09T09:52:42;100963.00;;;18.87;77.13
13593;BME280;6867;50.998;4.250;2023-05-09T09:55:10;100959.91;;;18.74;77.40
13593;BME280;6867;50.998;4.250;2023-05-09T09:57:38;100961.41;;;18.64;77.30
13593;BME280;6867;50.998;4.250;2023-05-09T10:00:11;100944.69;;;18.56;76.43
13593;BME280;6867;50.998;4.250;2023-05-09T10:02:45;100963.28;;;18.37;77.55
13593;BME280;6867;50.998;4.250;2023-05-09T10:05:18;100958.41;;;18.39;77.89
13593;BME280;6867;50.998;4.250;2023-05-09T10:07:45;100953.03;;;18.22;77.67
13593;BME280;6867;50.998;4.250;2023-05-09T10:10:12;100942.16;;;18.22;76.85
13593;BME280;6867;50.998;4.250;2023-05-09T10:12:42;100930.53;;;18.27;75.99
13593;BME280;6867;50.998;4.250;2023-05-09T10:15:11;100925.81;;;17.95;76.04
13593;BME280;6867;50.998;4.250;2023-05-09T10:17:40;100938.13;;;17.81;76.63
13593;BME280;6867;50.998;4.250;2023-05-09T10:20:08;100929.16;;;18.24;75.98
13593;BME280;6867;50.998;4.250;2023-05-09T10:22:38;100916.19;;;18.31;75.43
13593;BME280;6867;50.998;4.250;2023-05-09T10:25:09;100929.50;;;18.33;76.00
13593;BME280;6867;50.998;4.250;2023-05-09T10:27:40;100932.28;;;18.38;75.65
13593;BME280;6867;50.998;4.250;2023-05-09T10:30:15;100925.22;;;18.37;75.78
13593;BME280;6867;50.998;4.250;2023-05-09T10:32:47;100914.16;;;18.22;75.58
13593;BME280;6867;50.998;4.250;2023-05-09T10:35:15;100918.13;;;18.14;75.57
13593;BME280;6867;50.998;4.250;2023-05-09T10:37:44;100917.66;;;17.95;75.84
13593;BME280;6867;50.998;4.250;2023-05-09T10:40:11;100910.47;;;18.06;75.45
13593;BME280;6867;50.998;4.250;2023-05-09T10:42:40;100910.38;;;18.01;75.62
13593;BME280;6867;50.998;4.250;2023-05-09T10:45:09;100902.59;;;18.09;75.00
13593;BME280;6867;50.998;4.250;2023-05-09T10:47:38;100908.34;;;18.13;75.60
13593;BME280;6867;50.998;4.250;2023-05-09T10:50:06;100895.53;;;18.08;75.60
13593;BME280;6867;50.998;4.250;2023-05-09T10:53:09;100901.47;;;18.27;75.78
13593;BME280;6867;50.998;4.250;2023-05-09T10:55:48;100886.72;;;18.23;75.37
13593;BME280;6867;50.998;4.250;2023-05-09T10:58:24;100893.13;;;18.12;75.65
13593;BME280;6867;50.998;4.250;2023-05-09T11:00:53;100894.06;;;18.50;75.13
13593;BME280;6867;50.998;4.250;2023-05-09T11:03:22;100888.88;;;18.48;75.05
13593;BME280;6867;50.998;4.250;2023-05-09T11:05:50;100896.97;;;18.43;75.31
13593;BME280;6867;50.998;4.250;2023-05-09T11:08:22;100898.88;;;18.42;75.90
13593;BME280;6867;50.998;4.250;2023-05-09T11:10:49;100900.91;;;18.52;75.91
13593;BME280;6867;50.998;4.250;2023-05-09T11:13:21;100899.97;;;18.69;75.63
13593;BME280;6867;50.998;4.250;2023-05-09T11:16:08;100902.78;;;18.25;76.37
13593;BME280;6867;50.998;4.250;2023-05-09T11:18:49;100904.69;;;18.24;76.40
13593;BME280;6867;50.998;4.250;2023-05-09T11:21:17;100895.66;;;18.19;76.78
13593;BME280;6867;50.998;4.250;2023-05-09T11:23:47;100895.78;;;18.34;76.88
13593;BME280;6867;50.998;4.250;2023-05-09T11:26:14;100868.59;;;18.93;75.72
13593;BME280;6867;50.998;4.250;2023-05-09T11:28:50;100866.84;;;19.14;74.80
13593;BME280;6867;50.998;4.250;2023-05-09T11:31:18;100867.94;;;19.13;74.66
13593;BME280;6867;50.998;4.250;2023-05-09T11:33:48;100874.03;;;18.93;75.13
13593;BME280;6867;50.998;4.250;2023-05-09T11:36:21;100875.47;;;19.01;75.17
13593;BME280;6867;50.998;4.250;2023-05-09T11:39:05;100864.22;;;18.87;74.66
13593;BME280;6867;50.998;4.250;2023-05-09T11:41:38;100867.06;;;18.70;74.79
13593;BME280;6867;50.998;4.250;2023-05-09T11:44:12;100859.63;;;18.60;75.04
13593;BME280;6867;50.998;4.250;2023-05-09T11:46:39;100859.13;;;18.36;75.11
13593;BME280;6867;50.998;4.250;2023-05-09T11:49:07;100862.19;;;18.18;75.71
13593;BME280;6867;50.998;4.250;2023-05-09T11:51:35;100857.53;;;18.40;75.17
13593;BME280;6867;50.998;4.250;2023-05-09T11:54:03;100841.78;;;18.70;74.85
13593;BME280;6867;50.998;4.250;2023-05-09T11:56:30;100837.38;;;18.36;74.37
13593;BME280;6867;50.998;4.250;2023-05-09T11:58:57;100833.06;;;18.73;73.89
13593;BME280;6867;50.998;4.250;2023-05-09T12:01:24;100838.81;;;18.44;74.67
13593;BME280;6867;50.998;4.250;2023-05-09T12:03:51;100838.03;;;18.22;74.93
13593;BME280;6867;50.998;4.250;2023-05-09T12:06:19;100856.44;;;18.41;75.33
13593;BME280;6867;50.998;4.250;2023-05-09T12:08:46;100846.16;;;18.44;75.27
13593;BME280;6867;50.998;4.250;2023-05-09T12:11:14;100850.66;;;18.33;75.48
13593;BME280;6867;50.998;4.250;2023-05-09T12:13:44;100842.19;;;18.56;75.66
13593;BME280;6867;50.998;4.250;2023-05-09T12:16:12;100850.81;;;18.21;76.57
13593;BME280;6867;50.998;4.250;2023-05-09T12:18:43;100851.06;;;18.20;76.90
13593;BME280;6867;50.998;4.250;2023-05-09T12:21:10;100851.19;;;18.35;76.94
13593;BME280;6867;50.998;4.250;2023-05-09T12:23:38;100838.69;;;18.34;76.30
13593;BME280;6867;50.998;4.250;2023-05-09T12:26:05;100827.81;;;18.34;75.71
13593;BME280;6867;50.998;4.250;2023-05-09T12:28:33;100839.09;;;18.21;76.49
13593;BME280;6867;50.998;4.250;2023-05-09T12:30:59;100833.28;;;18.07;76.37
13593;BME280;6867;50.998;4.250;2023-05-09T12:33:27;100826.84;;;18.18;76.25
13593;BME280;6867;50.998;4.250;2023-05-09T12:36:02;100816.69;;;18.35;75.92
13593;BME280;6867;50.998;4.250;2023-05-09T12:38:30;100817.28;;;18.42;75.90
13593;BME280;6867;50.998;4.250;2023-05-09T12:41:02;100811.47;;;18.61;75.29
13593;BME280;6867;50.998;4.250;2023-05-09T12:43:30;100813.91;;;18.62;75.08
13593;BME280;6867;50.998;4.250;2023-05-09T12:45:59;100815.72;;;18.79;74.89
13593;BME280;6867;50.998;4.250;2023-05-09T12:48:28;100810.09;;;18.90;74.46
13593;BME280;6867;50.998;4.250;2023-05-09T12:50:55;100801.94;;;18.63;74.72
13593;BME280;6867;50.998;4.250;2023-05-09T12:53:25;100799.00;;;18.65;74.46
13593;BME280;6867;50.998;4.250;2023-05-09T12:55:55;100804.84;;;18.52;75.49
13593;BME280;6867;50.998;4.250;2023-05-09T12:58:29;100804.66;;;18.96;74.42
13593;BME280;6867;50.998;4.250;2023-05-09T13:00:57;100797.94;;;19.08;73.81
13593;BME280;6867;50.998;4.250;2023-05-09T13:03:26;100787.84;;;19.04;73.45
13593;BME280;6867;50.998;4.250;2023-05-09T13:05:56;100793.78;;;18.96;73.42